createdAt,value
2022-12-26T00:02:49.275Z,5.72
2022-12-26T00:05:51.583Z,5.35
2022-12-26T00:08:55.034Z,5.07
2022-12-26T00:11:57.009Z,5.75
2022-12-26T00:14:58.926Z,5.72
2022-12-26T00:18:00.942Z,5.32
2022-12-26T00:21:03.015Z,5.35
2022-12-26T00:24:05.597Z,5.80
2022-12-26T00:27:07.642Z,5.53
2022-12-26T00:30:10.915Z,6.75
2022-12-26T00:33:13.786Z,4.82
2022-12-26T00:36:19.049Z,6.57
2022-12-26T00:39:21.272Z,5.75
2022-12-26T00:42:23.405Z,5.55
2022-12-26T00:45:25.763Z,5.60
2022-12-26T00:48:29.129Z,5.53
2022-12-26T00:51:31.578Z,4.72
2022-12-26T00:54:34.335Z,5.45
2022-12-26T00:57:36.471Z,6.40
2022-12-26T01:00:44.483Z,6.50
2022-12-26T01:03:47.258Z,6.57
2022-12-26T01:06:49.312Z,4.90
2022-12-26T01:09:51.482Z,6.05
2022-12-26T01:12:54.030Z,6.10
2022-12-26T01:15:58.684Z,5.45
2022-12-26T01:19:08.881Z,7.03
2022-12-26T01:22:11.277Z,5.88
2022-12-26T01:25:13.950Z,6.47
2022-12-26T01:28:15.948Z,6.18
2022-12-26T01:31:19.336Z,5.30
2022-12-26T01:34:21.914Z,6.05
2022-12-26T01:37:24.089Z,5.93
2022-12-26T01:40:26.384Z,6.72
2022-12-26T01:44:02.041Z,5.82
2022-12-26T01:47:04.193Z,5.80
2022-12-26T01:50:10.304Z,5.00
2022-12-26T01:53:18.722Z,5.50
2022-12-26T01:59:28.730Z,4.75
2022-12-26T02:02:51.784Z,5.50
2022-12-26T02:05:57.616Z,5.50
2022-12-26T02:09:00.447Z,5.72
2022-12-26T02:12:34.322Z,5.63
2022-12-26T02:15:36.631Z,5.30
2022-12-26T02:18:39.006Z,5.38
2022-12-26T02:21:49.664Z,5.82
2022-12-26T02:24:54.618Z,6.70
2022-12-26T02:28:34.409Z,6.75
2022-12-26T02:32:06.828Z,6.70
2022-12-26T02:35:28.080Z,6.20
2022-12-26T02:38:36.127Z,6.45
2022-12-26T02:41:47.187Z,5.70
2022-12-26T02:45:17.697Z,5.55
2022-12-26T02:48:41.979Z,5.32
2022-12-26T02:52:05.412Z,5.72
2022-12-26T02:55:35.001Z,6.63
2022-12-26T03:02:59.348Z,8.20
2022-12-26T03:06:26.169Z,7.68
2022-12-26T03:09:51.427Z,6.97
2022-12-26T03:13:13.982Z,6.53
2022-12-26T03:16:36.458Z,6.78
2022-12-26T03:19:58.583Z,7.15
2022-12-26T03:23:09.059Z,6.50
2022-12-26T03:26:35.490Z,6.93
2022-12-26T03:29:56.523Z,6.75
2022-12-26T03:32:59.523Z,7.80
2022-12-26T03:36:03.390Z,7.85
2022-12-26T03:40:06.402Z,7.68
2022-12-26T03:43:45.951Z,7.65
2022-12-26T03:47:29.468Z,8.00
2022-12-26T03:51:22.577Z,7.40
2022-12-26T03:55:01.834Z,7.63
2022-12-26T03:58:35.323Z,8.70
2022-12-26T04:02:00.246Z,8.10
2022-12-26T04:05:24.989Z,8.50
2022-12-26T04:09:15.922Z,5.07
2022-12-26T04:12:44.972Z,5.25
2022-12-26T04:16:58.358Z,4.82
2022-12-26T04:20:09.544Z,4.95
2022-12-26T04:23:41.152Z,5.03
2022-12-26T04:27:10.027Z,4.88
2022-12-26T04:30:31.031Z,5.67
2022-12-26T04:34:02.496Z,5.28
2022-12-26T04:37:27.401Z,5.22
2022-12-26T04:40:52.838Z,5.05
2022-12-26T04:44:10.575Z,4.57
2022-12-26T04:47:12.666Z,4.97
2022-12-26T04:50:15.907Z,4.97
2022-12-26T04:53:19.174Z,4.20
2022-12-26T04:56:21.584Z,4.75
2022-12-26T04:59:24.293Z,5.13
2022-12-26T05:02:44.996Z,4.60
2022-12-26T05:06:08.529Z,4.85
2022-12-26T05:09:35.255Z,4.95
2022-12-26T05:12:37.351Z,5.22
2022-12-26T05:15:58.014Z,5.25
2022-12-26T05:19:18.535Z,4.43
2022-12-26T05:22:39.671Z,5.75
2022-12-26T05:26:03.560Z,5.80
2022-12-26T05:29:06.886Z,5.18
2022-12-26T05:32:08.955Z,4.97
2022-12-26T05:35:11.068Z,4.55
2022-12-26T05:38:13.229Z,5.30
2022-12-26T05:41:16.494Z,4.95
2022-12-26T05:44:18.651Z,5.05
2022-12-26T05:47:20.699Z,5.03
2022-12-26T05:50:26.975Z,5.40
2022-12-26T05:53:33.001Z,4.78
2022-12-26T05:56:35.324Z,5.70
2022-12-26T05:59:37.485Z,5.45
2022-12-26T06:02:39.588Z,5.85
2022-12-26T06:05:41.682Z,5.97
2022-12-26T06:08:44.040Z,5.88
2022-12-26T06:11:48.953Z,7.30
2022-12-26T06:14:51.283Z,6.40
2022-12-26T06:17:56.841Z,6.07
2022-12-26T06:20:58.911Z,4.90
2022-12-26T06:24:00.963Z,5.25
2022-12-26T06:27:03.378Z,5.35
2022-12-26T06:30:06.221Z,5.95
2022-12-26T06:33:08.223Z,4.97
2022-12-26T06:36:15.035Z,5.88
2022-12-26T06:39:17.276Z,5.30
2022-12-26T06:42:19.350Z,6.70
2022-12-26T06:45:22.221Z,3.85
2022-12-26T06:48:24.794Z,3.30
2022-12-26T06:51:29.318Z,3.95
2022-12-26T06:54:31.907Z,4.55
2022-12-26T06:57:34.033Z,4.10
2022-12-26T07:00:36.052Z,5.43
2022-12-26T07:03:41.996Z,5.28
2022-12-26T07:06:48.778Z,4.80
2022-12-26T07:09:50.927Z,4.72
2022-12-26T07:12:52.995Z,4.22
2022-12-26T07:15:55.268Z,4.90
2022-12-26T07:18:58.474Z,4.00
2022-12-26T07:22:00.587Z,4.40
2022-12-26T07:25:02.626Z,5.35
2022-12-26T07:28:05.306Z,5.65
2022-12-26T07:31:07.442Z,5.68
2022-12-26T07:34:09.760Z,5.05
2022-12-26T07:37:13.720Z,4.88
2022-12-26T07:40:15.810Z,6.22
2022-12-26T07:43:18.032Z,6.13
2022-12-26T07:46:20.897Z,6.05
2022-12-26T07:49:23.434Z,5.78
2022-12-26T07:52:25.579Z,5.65
2022-12-26T07:55:27.731Z,6.88
2022-12-26T07:58:29.980Z,6.20
2022-12-26T08:01:32.300Z,6.95
2022-12-26T08:04:35.104Z,7.38
2022-12-26T08:07:37.104Z,6.10
2022-12-26T08:10:39.308Z,6.28
2022-12-26T08:13:41.427Z,6.50
2022-12-26T08:20:09.246Z,6.82
2022-12-26T08:23:12.418Z,6.13
2022-12-26T08:26:21.071Z,6.43
2022-12-26T08:29:23.220Z,6.15
2022-12-26T08:32:25.225Z,7.22
2022-12-26T08:35:27.387Z,6.65
2022-12-26T08:38:31.815Z,5.80
2022-12-26T08:41:35.726Z,6.85
2022-12-26T08:44:38.450Z,4.90
2022-12-26T08:47:40.729Z,4.55
2022-12-26T08:50:43.322Z,4.75
2022-12-26T08:53:46.547Z,5.47
2022-12-26T08:56:48.719Z,4.55
2022-12-26T08:59:52.085Z,4.78
2022-12-26T09:02:54.641Z,5.55
2022-12-26T09:06:05.637Z,4.70
2022-12-26T09:09:11.470Z,5.47
2022-12-26T09:12:13.486Z,4.78
2022-12-26T09:15:16.859Z,4.70
2022-12-26T09:18:22.719Z,9.05
2022-12-26T09:21:24.995Z,8.73
2022-12-26T09:24:27.142Z,7.53
2022-12-26T09:27:29.748Z,8.10
2022-12-26T09:30:31.882Z,8.38
2022-12-26T09:33:37.998Z,7.70
2022-12-26T09:36:40.149Z,7.88
2022-12-26T09:39:42.168Z,7.65
2022-12-26T09:43:00.809Z,8.43
2022-12-26T09:46:17.094Z,8.82
2022-12-26T09:49:41.111Z,8.18
2022-12-26T09:52:48.398Z,7.75
2022-12-26T09:56:03.857Z,7.50
2022-12-26T09:59:17.173Z,7.53
2022-12-26T10:02:22.184Z,7.80
2022-12-26T10:05:34.129Z,7.10
2022-12-26T10:08:53.952Z,7.82
2022-12-26T10:12:06.113Z,6.47
2022-12-26T10:15:43.860Z,5.30
2022-12-26T10:18:59.477Z,6.20
2022-12-26T10:22:28.541Z,5.57
2022-12-26T10:25:56.834Z,6.00
2022-12-26T10:29:12.181Z,5.53
2022-12-26T10:32:34.533Z,5.20
2022-12-26T10:35:42.088Z,5.40
2022-12-26T10:38:47.974Z,6.18
2022-12-26T10:42:12.018Z,7.35
2022-12-26T10:45:29.545Z,7.78
2022-12-26T10:48:31.587Z,7.47
2022-12-26T10:51:34.081Z,7.00
2022-12-26T10:54:36.280Z,6.40
2022-12-26T10:57:41.574Z,7.10
2022-12-26T11:00:44.083Z,6.00
2022-12-26T11:03:57.407Z,5.80
2022-12-26T11:07:10.071Z,5.88
2022-12-26T11:10:25.738Z,5.80
2022-12-26T11:13:27.977Z,6.18
2022-12-26T11:16:33.980Z,7.13
2022-12-26T11:19:44.570Z,5.95
2022-12-26T11:22:47.236Z,6.57
2022-12-26T11:25:53.044Z,5.93
2022-12-26T11:29:16.987Z,6.75
2022-12-26T11:32:20.603Z,6.43
2022-12-26T11:35:26.706Z,6.78
2022-12-26T11:38:43.984Z,6.25
2022-12-26T11:41:49.306Z,6.63
2022-12-26T11:44:55.841Z,5.97
2022-12-26T11:48:02.475Z,5.88
2022-12-26T11:51:06.110Z,6.07
2022-12-26T11:54:37.499Z,6.10
2022-12-26T11:57:39.590Z,5.65
2022-12-26T12:01:22.022Z,5.88
2022-12-26T12:04:24.644Z,5.65
2022-12-26T12:07:36.665Z,5.15
2022-12-26T12:10:49.268Z,6.50
2022-12-26T12:14:01.601Z,5.60
2022-12-26T12:17:12.388Z,6.22
2022-12-26T12:20:30.192Z,5.70
2022-12-26T12:23:37.119Z,7.65
2022-12-26T12:27:05.491Z,7.03
2022-12-26T12:30:55.263Z,6.57
2022-12-26T12:34:03.979Z,8.02
2022-12-26T12:37:42.929Z,7.47
2022-12-26T12:40:56.837Z,6.43
2022-12-26T12:44:07.798Z,7.90
2022-12-26T12:47:55.341Z,7.10
2022-12-26T12:51:28.418Z,8.05
2022-12-26T12:54:48.609Z,7.25
2022-12-26T12:57:56.433Z,7.18
2022-12-26T13:01:04.322Z,7.15
2022-12-26T13:04:20.166Z,8.55
2022-12-26T13:07:28.011Z,6.97
2022-12-26T13:10:33.446Z,8.23
2022-12-26T13:13:38.348Z,8.00
2022-12-26T13:16:49.147Z,8.45
2022-12-26T13:20:17.308Z,7.95
2022-12-26T13:23:59.420Z,6.82
2022-12-26T13:27:11.660Z,8.00
2022-12-26T13:30:16.571Z,9.00
2022-12-26T13:33:19.289Z,8.77
2022-12-26T13:36:40.223Z,8.48
2022-12-26T13:39:42.654Z,8.70
2022-12-26T13:43:08.887Z,7.25
2022-12-26T13:46:32.895Z,8.43
2022-12-26T13:49:40.265Z,8.55
2022-12-26T13:52:42.809Z,8.20
2022-12-26T13:55:45.500Z,8.65
2022-12-26T13:58:55.077Z,8.50
2022-12-26T14:02:58.217Z,8.32
2022-12-26T14:05:58.454Z,7.88
2022-12-26T14:09:20.930Z,9.25
2022-12-26T14:12:53.725Z,8.77
2022-12-26T14:16:21.630Z,8.88
2022-12-26T14:19:35.647Z,9.85
2022-12-26T14:22:49.741Z,8.57
2022-12-26T14:26:03.744Z,8.98
2022-12-26T14:29:24.305Z,9.85
2022-12-26T14:32:57.877Z,9.45
2022-12-26T14:36:22.083Z,10.30
2022-12-26T14:39:29.817Z,9.70
2022-12-26T14:42:51.769Z,10.10
2022-12-26T14:46:03.760Z,9.13
2022-12-26T14:49:39.971Z,9.02
2022-12-26T14:52:43.497Z,8.77
2022-12-26T14:56:04.013Z,8.63
2022-12-26T14:59:29.231Z,9.38
2022-12-26T15:02:34.407Z,8.75
2022-12-26T15:05:44.763Z,9.52
2022-12-26T15:09:08.710Z,10.25
2022-12-26T15:12:13.355Z,9.80
2022-12-26T15:15:33.044Z,10.20
2022-12-26T15:19:12.384Z,10.13
2022-12-26T15:22:42.515Z,11.20
2022-12-26T15:26:09.739Z,15.55
2022-12-26T15:29:26.754Z,13.85
2022-12-26T15:33:00.837Z,20.80
2022-12-26T15:36:14.634Z,15.00
2022-12-26T15:40:02.883Z,11.57
2022-12-26T15:43:16.845Z,10.18
2022-12-26T15:46:21.710Z,11.30
2022-12-26T15:49:34.800Z,10.13
2022-12-26T15:52:54.303Z,10.48
2022-12-26T15:56:15.802Z,11.07
2022-12-26T15:59:29.992Z,11.60
2022-12-26T16:02:37.370Z,10.43
2022-12-26T16:05:59.621Z,10.90
2022-12-26T16:09:20.136Z,11.20
2022-12-26T16:12:31.238Z,9.68
2022-12-26T16:15:34.137Z,11.52
2022-12-26T16:18:38.473Z,10.20
2022-12-26T16:21:59.248Z,11.13
2022-12-26T16:25:02.331Z,11.77
2022-12-26T16:28:05.289Z,11.40
2022-12-26T16:31:09.146Z,11.60
2022-12-26T16:34:17.153Z,10.55
2022-12-26T16:37:24.340Z,11.68
2022-12-26T16:40:42.316Z,11.05
2022-12-26T16:43:44.407Z,12.43
2022-12-26T16:46:46.642Z,11.85
2022-12-26T16:49:49.321Z,11.57
2022-12-26T16:53:06.000Z,13.80
2022-12-26T16:56:33.593Z,20.92
2022-12-26T16:59:49.991Z,22.95
2022-12-26T17:02:56.362Z,16.40
2022-12-26T17:05:58.844Z,14.48
2022-12-26T17:09:12.837Z,13.13
2022-12-26T17:12:37.248Z,12.73
2022-12-26T17:15:53.994Z,13.90
2022-12-26T17:19:20.508Z,12.70
2022-12-26T17:22:32.808Z,13.20
2022-12-26T17:25:35.135Z,13.45
2022-12-26T17:28:39.841Z,13.70
2022-12-26T17:31:44.295Z,12.27
2022-12-26T17:34:46.602Z,11.38
2022-12-26T17:37:52.200Z,13.13
2022-12-26T17:41:02.566Z,15.23
2022-12-26T17:44:43.815Z,14.90
2022-12-26T17:47:46.162Z,13.25
2022-12-26T17:50:50.222Z,13.90
2022-12-26T17:53:54.978Z,12.43
2022-12-26T17:56:57.101Z,13.48
2022-12-26T17:59:59.225Z,12.43
2022-12-26T18:03:01.320Z,13.57
2022-12-26T18:06:03.844Z,12.80
2022-12-26T18:09:05.866Z,14.63
2022-12-26T18:12:09.563Z,14.73
2022-12-26T18:15:11.618Z,15.23
2022-12-26T18:18:41.117Z,14.75
2022-12-26T18:21:46.939Z,16.05
2022-12-26T18:24:49.380Z,15.65
2022-12-26T18:27:51.777Z,18.20
2022-12-26T18:30:53.724Z,16.60
2022-12-26T18:33:56.084Z,17.92
2022-12-26T18:36:58.097Z,17.40
2022-12-26T18:40:00.252Z,17.08
2022-12-26T18:43:04.398Z,15.75
2022-12-26T18:46:06.502Z,18.77
2022-12-26T18:49:09.807Z,17.55
2022-12-26T18:52:17.546Z,16.13
2022-12-26T18:55:21.014Z,16.30
2022-12-26T18:58:23.040Z,13.88
2022-12-26T19:01:26.048Z,12.35
2022-12-26T19:04:28.408Z,13.00
2022-12-26T19:07:30.555Z,13.15
2022-12-26T19:10:35.058Z,12.68
2022-12-26T19:13:37.098Z,12.57
2022-12-26T19:16:39.238Z,15.10
2022-12-26T19:19:41.954Z,14.18
2022-12-26T19:22:44.710Z,12.30
2022-12-26T19:25:46.755Z,13.48
2022-12-26T19:28:52.507Z,13.43
2022-12-26T19:31:56.522Z,12.98
2022-12-26T19:34:59.095Z,15.18
2022-12-26T19:38:01.295Z,16.50
2022-12-26T19:41:04.465Z,18.33
2022-12-26T19:44:06.572Z,20.35
2022-12-26T19:47:12.453Z,17.40
2022-12-26T19:50:14.974Z,16.48
2022-12-26T19:53:17.038Z,17.67
2022-12-26T19:56:24.808Z,14.00
2022-12-26T19:59:29.121Z,13.17
2022-12-26T20:02:31.220Z,14.65
2022-12-26T20:05:37.303Z,13.65
2022-12-26T20:08:40.324Z,14.35
2022-12-26T20:11:46.036Z,15.40
2022-12-26T20:14:48.617Z,15.15
2022-12-26T20:17:50.887Z,18.45
2022-12-26T20:20:53.834Z,17.15
2022-12-26T20:23:58.743Z,17.92
2022-12-26T20:27:01.729Z,15.07
2022-12-26T20:30:05.330Z,15.30
2022-12-26T20:33:07.675Z,15.35
2022-12-26T20:36:12.181Z,16.08
2022-12-26T20:39:17.454Z,16.90
2022-12-26T20:42:20.747Z,16.90
2022-12-26T20:45:22.879Z,15.13
2022-12-26T20:48:25.515Z,16.73
2022-12-26T20:51:37.360Z,15.55
2022-12-26T20:54:40.333Z,14.95
2022-12-26T20:57:42.310Z,15.68
2022-12-26T21:00:45.303Z,15.68
2022-12-26T21:03:48.503Z,14.63
2022-12-26T21:06:52.261Z,16.90
2022-12-26T21:09:54.337Z,14.15
2022-12-26T21:12:58.417Z,14.48
2022-12-26T21:16:10.409Z,15.35
2022-12-26T21:19:16.124Z,14.60
2022-12-26T21:22:18.216Z,14.05
2022-12-26T21:25:22.385Z,13.13
2022-12-26T21:28:24.500Z,13.75
2022-12-26T21:31:27.528Z,14.07
2022-12-26T21:34:31.767Z,14.13
2022-12-26T21:37:48.550Z,14.80
2022-12-26T21:40:51.111Z,14.77
2022-12-26T21:43:56.009Z,15.65
2022-12-26T21:46:58.228Z,15.43
2022-12-26T21:50:00.418Z,15.90
2022-12-26T21:53:03.092Z,13.35
2022-12-26T21:56:07.391Z,14.00
2022-12-26T21:59:28.352Z,14.38
2022-12-26T22:02:51.428Z,14.60
2022-12-26T22:05:53.707Z,14.15
2022-12-26T22:08:55.753Z,14.10
2022-12-26T22:12:27.212Z,14.85
2022-12-26T22:15:48.218Z,16.52
2022-12-26T22:18:50.268Z,17.17
2022-12-26T22:21:55.220Z,17.02
2022-12-26T22:24:57.283Z,15.57
2022-12-26T22:28:00.137Z,14.85
2022-12-26T22:31:02.276Z,14.95
2022-12-26T22:34:06.585Z,14.48
2022-12-26T22:37:08.722Z,15.10
2022-12-26T22:40:11.673Z,14.32
2022-12-26T22:43:13.689Z,16.58
2022-12-26T22:46:15.923Z,14.23
2022-12-26T22:49:18.066Z,15.18
2022-12-26T22:52:20.089Z,13.55
2022-12-26T22:55:22.240Z,13.90
2022-12-26T22:58:24.389Z,13.18
2022-12-26T23:01:30.721Z,14.10
2022-12-26T23:04:35.019Z,13.43
2022-12-26T23:07:39.460Z,14.35
2022-12-26T23:10:48.201Z,14.73
2022-12-26T23:13:50.500Z,13.18
2022-12-26T23:16:56.411Z,13.10
2022-12-26T23:20:17.244Z,13.60
2022-12-26T23:23:19.968Z,12.73
2022-12-26T23:26:23.223Z,13.10
2022-12-26T23:29:45.979Z,13.07
2022-12-26T23:32:51.459Z,13.20
2022-12-26T23:35:54.076Z,12.80
2022-12-26T23:38:56.916Z,14.20
2022-12-26T23:41:59.072Z,13.00
2022-12-26T23:45:01.350Z,13.93
2022-12-26T23:48:06.657Z,15.95
2022-12-26T23:51:09.427Z,12.50
2022-12-26T23:54:11.870Z,14.20
2022-12-26T23:57:14.947Z,12.40
